Meteo Giornale » Osservazioni meteo Giappone » Fukushima
ore: 04:00 - Osservazioni Meteo Fukushima
Lat. 37° 14' N Lon. 140° 26' E Alt. 372 metri s.l.m.
21 °C
Coperto
Temp. 24 Ore
19 °C
23 °C
Sud
11.1 Km/h
Dew point 21 °C
Umidità 100 %
Visibilità 10 Km
Il sole sorge alle ore 05:09
Il sole tramonta alle ore 18:06
| Data e Ora | Cielo e Fenomeni | T °C | DP °C | Um. % | Pres. hPa | Vis. km | Vento km/h | |
|---|---|---|---|---|---|---|---|---|
| Oggi h: 04:00 | Coperto | 21 | 21 | 100 | 1016 | 10 | S 11.1 | |
| Oggi h: 03:00 | Coperto | 22 | 21 | 94 | 1016 | 10 | S 9.3 | |
| Oggi h: 02:00 | Coperto | 22 | 21 | 94 | 1017 | 10 | S/SE 9.3 | |
| Oggi h: 01:00 | Coperto | 22 | 21 | 94 | 1017 | 10 | S/SE 7.4 | |
| Oggi h: 00:00 | Coperto | 22 | 21 | 94 | 1018 | 10 | N 5.5 | |
| Ieri h: 23:00 | Coperto | 22 | 21 | 94 | 1018 | 10 | N 5.5 | |
| Ieri h: 22:00 | Coperto | 22 | 21 | 94 | 1018 | 10 | N 5.5 | |
| Ieri h: 21:00 | Coperto | 21 | 20 | 94 | 1018 | 10 | N 5.5 | |
| Ieri h: 20:00 | Molto Nuvoloso | 22 | 20 | 88 | 1018 | 10 | N 5.5 | |
| Ieri h: 19:00 | Molto Nuvoloso | 22 | 20 | 88 | 1018 | 10 | N 5.5 | |
| Ieri h: 18:00 | Pioggia | 22 | 21 | 94 | 1018 | 10 | N 3.7 | |
| Ieri h: 17:00 | Pioggia Foschia | 22 | 21 | 94 | 1017 | 3 | SE 9.3 | |
| Ieri h: 16:00 | Pioggia Foschia | 22 | 21 | 94 | 1018 | 2 | N 5.5 | |
| Ieri h: 15:00 | Pioggia Foschia | 22 | 21 | 94 | 1018 | 5 | N 5.5 | |
| Ieri h: 14:00 | Molto Nuvoloso | 23 | 21 | 88 | 1018 | 10 | N 3.7 | |
| Ieri h: 13:00 | Molto Nuvoloso | 23 | 20 | 83 | 1018 | 10 | N 5.5 | |
| Ieri h: 12:00 | Molto Nuvoloso | 23 | 20 | 83 | 1018 | 10 | N 5.5 | |
| Ieri h: 11:00 | Molto Nuvoloso | 23 | 20 | 83 | 1018 | 10 | N 3.7 | |
| Ieri h: 10:00 | Molto Nuvoloso | 23 | 20 | 83 | 1019 | 10 | N 5.5 | |
| Ieri h: 09:00 | Molto Nuvoloso | 22 | 20 | 88 | 1019 | 10 | N 5.5 | |
| Ieri h: 08:00 | Molto Nuvoloso | 21 | 18 | 82 | 1019 | 10 | N 3.7 | |
| Ieri h: 07:00 | Coperto | 19 | 19 | 100 | 1019 | 10 | N/NE 9.3 | |
| Ieri h: 06:00 | Coperto | 20 | 18 | 88 | 1018 | 10 | N 3.7 | |
| Ieri h: 05:00 | Coperto | 19 | 18 | 93 | 1018 | 10 | N 3.7 | |



